sensor_id;sensor_type;location;lat;lon;timestamp;P1;durP1;ratioP1;P2;durP2;ratioP2
21890;SDS011;11110;52.386;16.940;2022-12-07T00:01:37;15.80;;;6.17;;
21890;SDS011;11110;52.386;16.940;2022-12-07T00:04:07;18.07;;;6.43;;
21890;SDS011;11110;52.386;16.940;2022-12-07T00:06:39;25.10;;;8.70;;
21890;SDS011;11110;52.386;16.940;2022-12-07T00:09:10;19.00;;;6.97;;
21890;SDS011;11110;52.386;16.940;2022-12-07T00:11:40;23.27;;;7.90;;
21890;SDS011;11110;52.386;16.940;2022-12-07T00:14:10;24.83;;;8.30;;
21890;SDS011;11110;52.386;16.940;2022-12-07T00:16:41;22.13;;;7.27;;
21890;SDS011;11110;52.386;16.940;2022-12-07T00:19:11;17.53;;;6.93;;
21890;SDS011;11110;52.386;16.940;2022-12-07T00:21:41;17.80;;;6.73;;
21890;SDS011;11110;52.386;16.940;2022-12-07T00:24:10;19.93;;;7.50;;
21890;SDS011;11110;52.386;16.940;2022-12-07T00:26:40;17.33;;;6.17;;
21890;SDS011;11110;52.386;16.940;2022-12-07T00:29:10;21.13;;;7.83;;
21890;SDS011;11110;52.386;16.940;2022-12-07T00:31:43;20.30;;;7.37;;
21890;SDS011;11110;52.386;16.940;2022-12-07T00:34:13;22.20;;;8.50;;
21890;SDS011;11110;52.386;16.940;2022-12-07T00:36:43;20.23;;;7.47;;
21890;SDS011;11110;52.386;16.940;2022-12-07T00:39:11;22.20;;;9.10;;
21890;SDS011;11110;52.386;16.940;2022-12-07T00:41:40;17.70;;;7.27;;
21890;SDS011;11110;52.386;16.940;2022-12-07T00:44:09;24.70;;;8.60;;
21890;SDS011;11110;52.386;16.940;2022-12-07T00:46:38;19.73;;;7.63;;
21890;SDS011;11110;52.386;16.940;2022-12-07T00:49:07;17.67;;;7.57;;
21890;SDS011;11110;52.386;16.940;2022-12-07T00:51:36;17.87;;;8.17;;
21890;SDS011;11110;52.386;16.940;2022-12-07T00:54:05;20.07;;;7.13;;
21890;SDS011;11110;52.386;16.940;2022-12-07T00:56:34;20.03;;;8.23;;
21890;SDS011;11110;52.386;16.940;2022-12-07T00:59:03;19.73;;;7.77;;
21890;SDS011;11110;52.386;16.940;2022-12-07T01:01:32;19.27;;;7.57;;
21890;SDS011;11110;52.386;16.940;2022-12-07T01:04:02;26.10;;;9.80;;
21890;SDS011;11110;52.386;16.940;2022-12-07T01:06:33;26.63;;;8.40;;
21890;SDS011;11110;52.386;16.940;2022-12-07T01:09:02;22.60;;;8.30;;
21890;SDS011;11110;52.386;16.940;2022-12-07T01:11:31;28.33;;;9.37;;
21890;SDS011;11110;52.386;16.940;2022-12-07T01:14:00;18.13;;;7.43;;
21890;SDS011;11110;52.386;16.940;2022-12-07T01:16:29;19.70;;;8.23;;
21890;SDS011;11110;52.386;16.940;2022-12-07T01:18:59;18.33;;;8.50;;
21890;SDS011;11110;52.386;16.940;2022-12-07T01:21:33;23.23;;;8.37;;
21890;SDS011;11110;52.386;16.940;2022-12-07T01:24:05;27.17;;;9.97;;
21890;SDS011;11110;52.386;16.940;2022-12-07T01:26:35;34.20;;;11.27;;
21890;SDS011;11110;52.386;16.940;2022-12-07T01:29:03;21.47;;;8.57;;
21890;SDS011;11110;52.386;16.940;2022-12-07T01:31:32;20.53;;;8.90;;
21890;SDS011;11110;52.386;16.940;2022-12-07T01:34:01;21.60;;;8.63;;
21890;SDS011;11110;52.386;16.940;2022-12-07T01:36:30;19.63;;;8.67;;
21890;SDS011;11110;52.386;16.940;2022-12-07T01:39:03;21.30;;;7.67;;
21890;SDS011;11110;52.386;16.940;2022-12-07T01:41:33;21.97;;;9.10;;
21890;SDS011;11110;52.386;16.940;2022-12-07T01:44:13;22.73;;;8.50;;
21890;SDS011;11110;52.386;16.940;2022-12-07T01:46:48;17.80;;;7.37;;
21890;SDS011;11110;52.386;16.940;2022-12-07T01:49:19;22.07;;;8.60;;
21890;SDS011;11110;52.386;16.940;2022-12-07T01:51:55;19.50;;;7.90;;
21890;SDS011;11110;52.386;16.940;2022-12-07T01:54:29;19.97;;;8.43;;
21890;SDS011;11110;52.386;16.940;2022-12-07T01:56:58;22.27;;;9.23;;
21890;SDS011;11110;52.386;16.940;2022-12-07T01:59:27;18.80;;;8.07;;
21890;SDS011;11110;52.386;16.940;2022-12-07T02:01:56;20.00;;;8.17;;
21890;SDS011;11110;52.386;16.940;2022-12-07T02:04:25;23.10;;;8.70;;
21890;SDS011;11110;52.386;16.940;2022-12-07T02:06:55;23.20;;;7.80;;
21890;SDS011;11110;52.386;16.940;2022-12-07T02:09:25;20.20;;;7.73;;
21890;SDS011;11110;52.386;16.940;2022-12-07T02:11:53;19.63;;;7.47;;
21890;SDS011;11110;52.386;16.940;2022-12-07T02:14:23;28.00;;;9.17;;
21890;SDS011;11110;52.386;16.940;2022-12-07T02:16:56;19.33;;;7.77;;
21890;SDS011;11110;52.386;16.940;2022-12-07T02:19:52;22.57;;;7.73;;
21890;SDS011;11110;52.386;16.940;2022-12-07T02:26:05;18.10;;;6.90;;
21890;SDS011;11110;52.386;16.940;2022-12-07T02:28:58;18.27;;;7.43;;
21890;SDS011;11110;52.386;16.940;2022-12-07T02:31:43;25.87;;;8.47;;
21890;SDS011;11110;52.386;16.940;2022-12-07T02:34:16;21.87;;;7.80;;
21890;SDS011;11110;52.386;16.940;2022-12-07T02:36:52;20.93;;;8.97;;
21890;SDS011;11110;52.386;16.940;2022-12-07T02:39:26;17.07;;;7.40;;
21890;SDS011;11110;52.386;16.940;2022-12-07T02:42:02;17.27;;;6.83;;
21890;SDS011;11110;52.386;16.940;2022-12-07T02:44:38;16.33;;;7.23;;
21890;SDS011;11110;52.386;16.940;2022-12-07T02:47:09;18.67;;;7.20;;
21890;SDS011;11110;52.386;16.940;2022-12-07T02:49:40;18.43;;;7.13;;
21890;SDS011;11110;52.386;16.940;2022-12-07T02:52:09;21.70;;;7.83;;
21890;SDS011;11110;52.386;16.940;2022-12-07T02:54:38;21.97;;;8.13;;
21890;SDS011;11110;52.386;16.940;2022-12-07T02:57:11;16.63;;;7.93;;
21890;SDS011;11110;52.386;16.940;2022-12-07T02:59:56;16.97;;;7.20;;
21890;SDS011;11110;52.386;16.940;2022-12-07T03:02:32;17.27;;;6.60;;
21890;SDS011;11110;52.386;16.940;2022-12-07T03:05:13;22.43;;;8.10;;
21890;SDS011;11110;52.386;16.940;2022-12-07T03:07:55;19.20;;;8.03;;
21890;SDS011;11110;52.386;16.940;2022-12-07T03:10:32;18.87;;;8.57;;
21890;SDS011;11110;52.386;16.940;2022-12-07T03:13:07;23.47;;;8.87;;
21890;SDS011;11110;52.386;16.940;2022-12-07T03:15:42;18.70;;;7.97;;
21890;SDS011;11110;52.386;16.940;2022-12-07T03:18:15;19.07;;;8.03;;
21890;SDS011;11110;52.386;16.940;2022-12-07T03:20:46;21.23;;;8.30;;
21890;SDS011;11110;52.386;16.940;2022-12-07T03:23:18;17.87;;;7.23;;
21890;SDS011;11110;52.386;16.940;2022-12-07T03:25:49;24.40;;;8.20;;
21890;SDS011;11110;52.386;16.940;2022-12-07T03:28:27;19.53;;;7.33;;
21890;SDS011;11110;52.386;16.940;2022-12-07T03:31:01;22.10;;;8.40;;
21890;SDS011;11110;52.386;16.940;2022-12-07T03:33:37;19.40;;;7.63;;
21890;SDS011;11110;52.386;16.940;2022-12-07T03:36:14;37.03;;;10.40;;
21890;SDS011;11110;52.386;16.940;2022-12-07T03:38:49;24.90;;;8.17;;
21890;SDS011;11110;52.386;16.940;2022-12-07T03:41:23;18.57;;;6.87;;
21890;SDS011;11110;52.386;16.940;2022-12-07T03:43:54;17.83;;;7.10;;
21890;SDS011;11110;52.386;16.940;2022-12-07T03:46:27;17.47;;;6.67;;
21890;SDS011;11110;52.386;16.940;2022-12-07T03:49:06;14.23;;;5.60;;
21890;SDS011;11110;52.386;16.940;2022-12-07T03:51:43;18.67;;;6.80;;
21890;SDS011;11110;52.386;16.940;2022-12-07T03:54:15;17.63;;;6.87;;
21890;SDS011;11110;52.386;16.940;2022-12-07T03:56:49;14.40;;;6.43;;
21890;SDS011;11110;52.386;16.940;2022-12-07T03:59:19;18.37;;;7.40;;
21890;SDS011;11110;52.386;16.940;2022-12-07T04:01:52;20.33;;;7.00;;
21890;SDS011;11110;52.386;16.940;2022-12-07T04:04:22;16.17;;;6.17;;
21890;SDS011;11110;52.386;16.940;2022-12-07T04:06:52;18.07;;;7.27;;
21890;SDS011;11110;52.386;16.940;2022-12-07T04:09:21;23.03;;;7.27;;
21890;SDS011;11110;52.386;16.940;2022-12-07T04:11:50;16.70;;;6.60;;
21890;SDS011;11110;52.386;16.940;2022-12-07T04:14:18;14.17;;;6.03;;
21890;SDS011;11110;52.386;16.940;2022-12-07T04:16:47;21.50;;;7.33;;
21890;SDS011;11110;52.386;16.940;2022-12-07T04:19:19;19.77;;;6.67;;
21890;SDS011;11110;52.386;16.940;2022-12-07T04:21:49;15.80;;;6.80;;
21890;SDS011;11110;52.386;16.940;2022-12-07T04:24:17;20.40;;;7.80;;
21890;SDS011;11110;52.386;16.940;2022-12-07T04:26:46;16.17;;;6.47;;
21890;SDS011;11110;52.386;16.940;2022-12-07T04:29:15;17.10;;;7.23;;
21890;SDS011;11110;52.386;16.940;2022-12-07T04:31:44;21.23;;;8.07;;
21890;SDS011;11110;52.386;16.940;2022-12-07T04:34:13;29.57;;;9.83;;
21890;SDS011;11110;52.386;16.940;2022-12-07T04:36:43;21.27;;;9.43;;
21890;SDS011;11110;52.386;16.940;2022-12-07T04:39:24;23.97;;;8.60;;
21890;SDS011;11110;52.386;16.940;2022-12-07T04:41:54;21.83;;;8.10;;
21890;SDS011;11110;52.386;16.940;2022-12-07T04:44:23;30.13;;;9.00;;
21890;SDS011;11110;52.386;16.940;2022-12-07T04:46:52;31.90;;;9.67;;
21890;SDS011;11110;52.386;16.940;2022-12-07T04:49:21;21.47;;;8.20;;
21890;SDS011;11110;52.386;16.940;2022-12-07T04:51:52;20.27;;;8.37;;
21890;SDS011;11110;52.386;16.940;2022-12-07T04:54:20;23.10;;;9.00;;
21890;SDS011;11110;52.386;16.940;2022-12-07T04:56:49;22.63;;;8.77;;
21890;SDS011;11110;52.386;16.940;2022-12-07T04:59:18;21.73;;;8.87;;
21890;SDS011;11110;52.386;16.940;2022-12-07T05:01:46;19.00;;;8.30;;
21890;SDS011;11110;52.386;16.940;2022-12-07T05:04:15;32.13;;;10.63;;
21890;SDS011;11110;52.386;16.940;2022-12-07T05:06:44;21.67;;;9.30;;
21890;SDS011;11110;52.386;16.940;2022-12-07T05:09:14;19.77;;;8.43;;
21890;SDS011;11110;52.386;16.940;2022-12-07T05:11:43;17.03;;;7.50;;
21890;SDS011;11110;52.386;16.940;2022-12-07T05:14:12;18.27;;;7.83;;
21890;SDS011;11110;52.386;16.940;2022-12-07T05:16:43;19.93;;;8.30;;
21890;SDS011;11110;52.386;16.940;2022-12-07T05:19:13;18.63;;;8.17;;
21890;SDS011;11110;52.386;16.940;2022-12-07T05:21:42;19.53;;;8.33;;
21890;SDS011;11110;52.386;16.940;2022-12-07T05:24:11;21.17;;;8.43;;
21890;SDS011;11110;52.386;16.940;2022-12-07T05:26:42;23.57;;;9.70;;
21890;SDS011;11110;52.386;16.940;2022-12-07T05:29:11;18.77;;;8.03;;
21890;SDS011;11110;52.386;16.940;2022-12-07T05:31:40;18.00;;;8.10;;
21890;SDS011;11110;52.386;16.940;2022-12-07T05:34:09;20.37;;;8.73;;
21890;SDS011;11110;52.386;16.940;2022-12-07T05:36:38;17.87;;;8.33;;
21890;SDS011;11110;52.386;16.940;2022-12-07T05:39:06;25.00;;;9.13;;
21890;SDS011;11110;52.386;16.940;2022-12-07T05:41:38;16.40;;;7.83;;
21890;SDS011;11110;52.386;16.940;2022-12-07T05:44:25;21.57;;;8.10;;
21890;SDS011;11110;52.386;16.940;2022-12-07T05:46:53;17.50;;;7.70;;
21890;SDS011;11110;52.386;16.940;2022-12-07T05:49:22;22.97;;;8.53;;
21890;SDS011;11110;52.386;16.940;2022-12-07T05:51:50;20.87;;;8.40;;
21890;SDS011;11110;52.386;16.940;2022-12-07T05:54:19;19.07;;;8.50;;
21890;SDS011;11110;52.386;16.940;2022-12-07T05:56:48;17.93;;;8.23;;
21890;SDS011;11110;52.386;16.940;2022-12-07T05:59:16;27.13;;;9.97;;
21890;SDS011;11110;52.386;16.940;2022-12-07T06:01:51;16.93;;;8.37;;
21890;SDS011;11110;52.386;16.940;2022-12-07T06:04:21;17.37;;;7.40;;
21890;SDS011;11110;52.386;16.940;2022-12-07T06:06:50;21.43;;;8.20;;
21890;SDS011;11110;52.386;16.940;2022-12-07T06:09:19;16.47;;;7.87;;
21890;SDS011;11110;52.386;16.940;2022-12-07T06:11:50;21.53;;;8.33;;
21890;SDS011;11110;52.386;16.940;2022-12-07T06:14:36;19.40;;;7.43;;
21890;SDS011;11110;52.386;16.940;2022-12-07T06:17:06;20.70;;;7.87;;
21890;SDS011;11110;52.386;16.940;2022-12-07T06:19:34;21.90;;;8.33;;
21890;SDS011;11110;52.386;16.940;2022-12-07T06:22:03;20.57;;;8.10;;
21890;SDS011;11110;52.386;16.940;2022-12-07T06:24:32;20.77;;;7.90;;
21890;SDS011;11110;52.386;16.940;2022-12-07T06:27:01;26.13;;;8.67;;
21890;SDS011;11110;52.386;16.940;2022-12-07T06:29:30;24.37;;;8.67;;
21890;SDS011;11110;52.386;16.940;2022-12-07T06:31:59;21.43;;;7.73;;
21890;SDS011;11110;52.386;16.940;2022-12-07T06:34:29;29.27;;;9.03;;
21890;SDS011;11110;52.386;16.940;2022-12-07T06:36:58;21.17;;;7.83;;
21890;SDS011;11110;52.386;16.940;2022-12-07T06:39:27;15.77;;;6.40;;
21890;SDS011;11110;52.386;16.940;2022-12-07T06:41:56;18.63;;;7.00;;
21890;SDS011;11110;52.386;16.940;2022-12-07T06:44:25;23.00;;;8.03;;
21890;SDS011;11110;52.386;16.940;2022-12-07T06:46:53;20.10;;;6.60;;
21890;SDS011;11110;52.386;16.940;2022-12-07T06:49:43;14.40;;;5.67;;
21890;SDS011;11110;52.386;16.940;2022-12-07T06:52:12;16.50;;;5.90;;
21890;SDS011;11110;52.386;16.940;2022-12-07T06:54:40;19.07;;;7.33;;
21890;SDS011;11110;52.386;16.940;2022-12-07T06:57:09;13.97;;;6.23;;
21890;SDS011;11110;52.386;16.940;2022-12-07T06:59:37;20.50;;;7.17;;
21890;SDS011;11110;52.386;16.940;2022-12-07T07:02:07;21.53;;;6.30;;
21890;SDS011;11110;52.386;16.940;2022-12-07T07:04:36;16.07;;;6.30;;
21890;SDS011;11110;52.386;16.940;2022-12-07T07:07:06;19.73;;;6.87;;
21890;SDS011;11110;52.386;16.940;2022-12-07T07:09:34;21.97;;;7.00;;
21890;SDS011;11110;52.386;16.940;2022-12-07T07:12:03;17.53;;;6.63;;
21890;SDS011;11110;52.386;16.940;2022-12-07T07:14:31;20.87;;;6.97;;
21890;SDS011;11110;52.386;16.940;2022-12-07T07:17:00;24.70;;;7.83;;
21890;SDS011;11110;52.386;16.940;2022-12-07T07:19:28;19.83;;;6.73;;
21890;SDS011;11110;52.386;16.940;2022-12-07T07:21:57;18.93;;;6.93;;
21890;SDS011;11110;52.386;16.940;2022-12-07T07:24:27;20.60;;;7.20;;
21890;SDS011;11110;52.386;16.940;2022-12-07T07:26:55;21.00;;;7.33;;
21890;SDS011;11110;52.386;16.940;2022-12-07T07:29:24;22.70;;;7.00;;
21890;SDS011;11110;52.386;16.940;2022-12-07T07:31:52;18.03;;;6.13;;
21890;SDS011;11110;52.386;16.940;2022-12-07T07:34:21;18.70;;;5.83;;
21890;SDS011;11110;52.386;16.940;2022-12-07T07:36:49;17.70;;;5.73;;
21890;SDS011;11110;52.386;16.940;2022-12-07T07:39:18;14.97;;;5.97;;
21890;SDS011;11110;52.386;16.940;2022-12-07T07:41:48;24.10;;;7.10;;
21890;SDS011;11110;52.386;16.940;2022-12-07T07:44:23;21.67;;;6.53;;
21890;SDS011;11110;52.386;16.940;2022-12-07T07:47:00;23.13;;;6.70;;
21890;SDS011;11110;52.386;16.940;2022-12-07T07:49:28;15.17;;;5.90;;
21890;SDS011;11110;52.386;16.940;2022-12-07T07:51:57;18.50;;;6.47;;
21890;SDS011;11110;52.386;16.940;2022-12-07T07:54:25;19.07;;;6.43;;
21890;SDS011;11110;52.386;16.940;2022-12-07T07:56:55;19.07;;;6.50;;
21890;SDS011;11110;52.386;16.940;2022-12-07T07:59:24;16.17;;;5.33;;
21890;SDS011;11110;52.386;16.940;2022-12-07T08:01:53;19.57;;;6.30;;
21890;SDS011;11110;52.386;16.940;2022-12-07T08:04:21;22.73;;;6.70;;
21890;SDS011;11110;52.386;16.940;2022-12-07T08:06:50;20.57;;;6.80;;
21890;SDS011;11110;52.386;16.940;2022-12-07T08:09:18;19.63;;;6.27;;
21890;SDS011;11110;52.386;16.940;2022-12-07T08:11:47;15.40;;;5.80;;
21890;SDS011;11110;52.386;16.940;2022-12-07T08:14:17;14.40;;;5.90;;
21890;SDS011;11110;52.386;16.940;2022-12-07T08:16:46;21.63;;;7.27;;
21890;SDS011;11110;52.386;16.940;2022-12-07T08:19:15;19.77;;;6.10;;
21890;SDS011;11110;52.386;16.940;2022-12-07T08:21:43;19.83;;;6.90;;
21890;SDS011;11110;52.386;16.940;2022-12-07T08:24:12;12.93;;;5.20;;
21890;SDS011;11110;52.386;16.940;2022-12-07T08:26:41;17.50;;;6.60;;
21890;SDS011;11110;52.386;16.940;2022-12-07T08:29:10;23.17;;;7.90;;
21890;SDS011;11110;52.386;16.940;2022-12-07T08:31:40;21.10;;;7.70;;
21890;SDS011;11110;52.386;16.940;2022-12-07T08:34:09;17.90;;;7.20;;
21890;SDS011;11110;52.386;16.940;2022-12-07T08:36:38;22.00;;;7.33;;
21890;SDS011;11110;52.386;16.940;2022-12-07T08:39:06;19.40;;;8.23;;
21890;SDS011;11110;52.386;16.940;2022-12-07T08:41:55;20.80;;;7.97;;
21890;SDS011;11110;52.386;16.940;2022-12-07T08:44:24;21.27;;;7.77;;
21890;SDS011;11110;52.386;16.940;2022-12-07T08:46:55;30.40;;;9.90;;
21890;SDS011;11110;52.386;16.940;2022-12-07T08:49:26;20.77;;;7.60;;
21890;SDS011;11110;52.386;16.940;2022-12-07T08:51:58;21.00;;;8.00;;
21890;SDS011;11110;52.386;16.940;2022-12-07T08:54:27;20.23;;;7.53;;
21890;SDS011;11110;52.386;16.940;2022-12-07T08:56:56;23.30;;;7.60;;
21890;SDS011;11110;52.386;16.940;2022-12-07T08:59:26;27.87;;;9.13;;
21890;SDS011;11110;52.386;16.940;2022-12-07T09:01:57;24.90;;;8.47;;
21890;SDS011;11110;52.386;16.940;2022-12-07T09:04:25;23.97;;;8.83;;
21890;SDS011;11110;52.386;16.940;2022-12-07T09:06:54;19.70;;;7.70;;
21890;SDS011;11110;52.386;16.940;2022-12-07T09:09:23;27.97;;;8.97;;
21890;SDS011;11110;52.386;16.940;2022-12-07T09:11:52;20.57;;;8.30;;
21890;SDS011;11110;52.386;16.940;2022-12-07T09:14:20;20.60;;;7.50;;
21890;SDS011;11110;52.386;16.940;2022-12-07T09:16:49;24.70;;;8.30;;
21890;SDS011;11110;52.386;16.940;2022-12-07T09:19:19;20.50;;;8.70;;
21890;SDS011;11110;52.386;16.940;2022-12-07T09:21:47;21.30;;;8.27;;
21890;SDS011;11110;52.386;16.940;2022-12-07T09:24:15;24.87;;;8.27;;
21890;SDS011;11110;52.386;16.940;2022-12-07T09:26:44;25.00;;;9.23;;
21890;SDS011;11110;52.386;16.940;2022-12-07T09:29:12;17.10;;;7.93;;
21890;SDS011;11110;52.386;16.940;2022-12-07T09:31:41;24.80;;;9.20;;
21890;SDS011;11110;52.386;16.940;2022-12-07T09:34:10;24.33;;;8.80;;
21890;SDS011;11110;52.386;16.940;2022-12-07T09:36:40;27.03;;;8.97;;
21890;SDS011;11110;52.386;16.940;2022-12-07T09:39:09;23.07;;;8.67;;
21890;SDS011;11110;52.386;16.940;2022-12-07T09:41:38;23.87;;;9.47;;
21890;SDS011;11110;52.386;16.940;2022-12-07T09:44:09;21.17;;;8.53;;
21890;SDS011;11110;52.386;16.940;2022-12-07T09:46:42;20.87;;;8.97;;
21890;SDS011;11110;52.386;16.940;2022-12-07T09:49:12;25.43;;;9.13;;
21890;SDS011;11110;52.386;16.940;2022-12-07T09:51:44;24.00;;;8.70;;
21890;SDS011;11110;52.386;16.940;2022-12-07T09:54:13;23.47;;;9.10;;
21890;SDS011;11110;52.386;16.940;2022-12-07T09:56:43;23.07;;;8.67;;
21890;SDS011;11110;52.386;16.940;2022-12-07T09:59:13;18.60;;;7.77;;
21890;SDS011;11110;52.386;16.940;2022-12-07T10:01:46;20.00;;;8.77;;
21890;SDS011;11110;52.386;16.940;2022-12-07T10:04:16;28.03;;;10.13;;
21890;SDS011;11110;52.386;16.940;2022-12-07T10:06:49;27.07;;;10.40;;
21890;SDS011;11110;52.386;16.940;2022-12-07T10:09:19;21.77;;;9.23;;
21890;SDS011;11110;52.386;16.940;2022-12-07T10:11:59;23.00;;;8.30;;
21890;SDS011;11110;52.386;16.940;2022-12-07T10:14:33;23.00;;;10.00;;
21890;SDS011;11110;52.386;16.940;2022-12-07T10:17:34;26.23;;;9.57;;
21890;SDS011;11110;52.386;16.940;2022-12-07T10:20:15;20.10;;;8.27;;
21890;SDS011;11110;52.386;16.940;2022-12-07T10:22:55;31.03;;;10.57;;
21890;SDS011;11110;52.386;16.940;2022-12-07T10:25:26;25.00;;;10.77;;
21890;SDS011;11110;52.386;16.940;2022-12-07T10:30:46;24.60;;;10.30;;
21890;SDS011;11110;52.386;16.940;2022-12-07T10:33:27;26.30;;;9.90;;
21890;SDS011;11110;52.386;16.940;2022-12-07T10:35:57;30.00;;;10.63;;
21890;SDS011;11110;52.386;16.940;2022-12-07T10:38:28;26.27;;;10.80;;
21890;SDS011;11110;52.386;16.940;2022-12-07T10:41:05;26.00;;;10.10;;
21890;SDS011;11110;52.386;16.940;2022-12-07T10:43:34;27.53;;;10.63;;
21890;SDS011;11110;52.386;16.940;2022-12-07T10:46:24;26.47;;;10.87;;
21890;SDS011;11110;52.386;16.940;2022-12-07T10:55:33;28.83;;;11.47;;
21890;SDS011;11110;52.386;16.940;2022-12-07T10:58:26;30.70;;;11.97;;
21890;SDS011;11110;52.386;16.940;2022-12-07T11:01:04;27.33;;;12.30;;
21890;SDS011;11110;52.386;16.940;2022-12-07T11:03:46;25.63;;;11.50;;
21890;SDS011;11110;52.386;16.940;2022-12-07T11:06:27;32.40;;;12.37;;
21890;SDS011;11110;52.386;16.940;2022-12-07T11:09:17;28.93;;;11.97;;
21890;SDS011;11110;52.386;16.940;2022-12-07T11:12:23;30.27;;;13.03;;
21890;SDS011;11110;52.386;16.940;2022-12-07T11:14:58;26.40;;;11.60;;
21890;SDS011;11110;52.386;16.940;2022-12-07T11:17:33;31.17;;;12.83;;
21890;SDS011;11110;52.386;16.940;2022-12-07T11:22:49;27.17;;;10.63;;
21890;SDS011;11110;52.386;16.940;2022-12-07T11:25:24;24.20;;;10.87;;
21890;SDS011;11110;52.386;16.940;2022-12-07T11:28:06;30.53;;;12.40;;
21890;SDS011;11110;52.386;16.940;2022-12-07T11:30:47;28.77;;;10.97;;
21890;SDS011;11110;52.386;16.940;2022-12-07T11:33:21;26.20;;;9.40;;
21890;SDS011;11110;52.386;16.940;2022-12-07T11:35:58;26.83;;;10.17;;
21890;SDS011;11110;52.386;16.940;2022-12-07T11:38:38;28.00;;;10.70;;
21890;SDS011;11110;52.386;16.940;2022-12-07T11:41:11;27.53;;;10.43;;
21890;SDS011;11110;52.386;16.940;2022-12-07T11:43:46;22.17;;;9.40;;
21890;SDS011;11110;52.386;16.940;2022-12-07T11:46:22;22.17;;;9.90;;
21890;SDS011;11110;52.386;16.940;2022-12-07T11:48:55;29.07;;;10.50;;
21890;SDS011;11110;52.386;16.940;2022-12-07T11:51:29;29.70;;;10.20;;
21890;SDS011;11110;52.386;16.940;2022-12-07T11:54:05;28.87;;;11.67;;
21890;SDS011;11110;52.386;16.940;2022-12-07T11:56:40;32.53;;;11.30;;
21890;SDS011;11110;52.386;16.940;2022-12-07T11:59:12;24.57;;;10.70;;
21890;SDS011;11110;52.386;16.940;2022-12-07T12:01:50;32.53;;;12.27;;
21890;SDS011;11110;52.386;16.940;2022-12-07T12:04:27;32.53;;;11.73;;
21890;SDS011;11110;52.386;16.940;2022-12-07T12:07:00;29.47;;;10.63;;
21890;SDS011;11110;52.386;16.940;2022-12-07T12:09:49;26.30;;;10.87;;
21890;SDS011;11110;52.386;16.940;2022-12-07T12:12:23;27.40;;;10.17;;
21890;SDS011;11110;52.386;16.940;2022-12-07T12:15:30;32.27;;;12.13;;
21890;SDS011;11110;52.386;16.940;2022-12-07T12:21:11;24.10;;;11.20;;
21890;SDS011;11110;52.386;16.940;2022-12-07T12:23:46;24.83;;;9.03;;
21890;SDS011;11110;52.386;16.940;2022-12-07T12:26:19;27.87;;;10.67;;
21890;SDS011;11110;52.386;16.940;2022-12-07T12:28:50;31.27;;;10.83;;
21890;SDS011;11110;52.386;16.940;2022-12-07T12:31:32;22.63;;;9.33;;
21890;SDS011;11110;52.386;16.940;2022-12-07T12:34:04;20.83;;;9.10;;
21890;SDS011;11110;52.386;16.940;2022-12-07T12:36:48;20.33;;;8.53;;
21890;SDS011;11110;52.386;16.940;2022-12-07T12:39:17;26.57;;;10.03;;
21890;SDS011;11110;52.386;16.940;2022-12-07T12:41:54;26.80;;;10.00;;
21890;SDS011;11110;52.386;16.940;2022-12-07T12:47:41;21.87;;;9.20;;
21890;SDS011;11110;52.386;16.940;2022-12-07T12:50:24;20.10;;;8.00;;
21890;SDS011;11110;52.386;16.940;2022-12-07T12:53:03;18.50;;;8.73;;
21890;SDS011;11110;52.386;16.940;2022-12-07T12:58:47;16.83;;;7.30;;
21890;SDS011;11110;52.386;16.940;2022-12-07T13:04:23;24.20;;;9.37;;
21890;SDS011;11110;52.386;16.940;2022-12-07T13:07:10;24.83;;;8.57;;
21890;SDS011;11110;52.386;16.940;2022-12-07T13:09:42;19.73;;;9.17;;
21890;SDS011;11110;52.386;16.940;2022-12-07T13:12:14;23.87;;;9.43;;
21890;SDS011;11110;52.386;16.940;2022-12-07T13:17:58;24.00;;;7.83;;
21890;SDS011;11110;52.386;16.940;2022-12-07T13:20:44;26.93;;;8.90;;
21890;SDS011;11110;52.386;16.940;2022-12-07T13:23:24;30.17;;;9.50;;
21890;SDS011;11110;52.386;16.940;2022-12-07T13:26:06;30.37;;;9.97;;
21890;SDS011;11110;52.386;16.940;2022-12-07T13:28:44;34.97;;;9.73;;
21890;SDS011;11110;52.386;16.940;2022-12-07T13:31:26;22.23;;;8.33;;
21890;SDS011;11110;52.386;16.940;2022-12-07T13:34:00;23.33;;;7.57;;
21890;SDS011;11110;52.386;16.940;2022-12-07T13:36:31;25.33;;;8.07;;
21890;SDS011;11110;52.386;16.940;2022-12-07T13:39:17;26.77;;;7.87;;
21890;SDS011;11110;52.386;16.940;2022-12-07T13:41:50;26.20;;;7.00;;
21890;SDS011;11110;52.386;16.940;2022-12-07T13:44:19;23.93;;;7.60;;
21890;SDS011;11110;52.386;16.940;2022-12-07T13:46:50;31.57;;;9.17;;
21890;SDS011;11110;52.386;16.940;2022-12-07T13:49:24;23.47;;;6.67;;
21890;SDS011;11110;52.386;16.940;2022-12-07T13:52:08;25.40;;;7.93;;
21890;SDS011;11110;52.386;16.940;2022-12-07T13:54:46;27.90;;;7.83;;
21890;SDS011;11110;52.386;16.940;2022-12-07T13:57:16;23.83;;;8.00;;
21890;SDS011;11110;52.386;16.940;2022-12-07T13:59:45;30.53;;;8.27;;
21890;SDS011;11110;52.386;16.940;2022-12-07T14:02:18;21.57;;;6.67;;
21890;SDS011;11110;52.386;16.940;2022-12-07T14:04:49;24.37;;;7.50;;
21890;SDS011;11110;52.386;16.940;2022-12-07T14:07:20;18.80;;;6.97;;
21890;SDS011;11110;52.386;16.940;2022-12-07T14:09:54;21.87;;;6.90;;
21890;SDS011;11110;52.386;16.940;2022-12-07T14:12:24;20.30;;;7.40;;
21890;SDS011;11110;52.386;16.940;2022-12-07T14:14:54;21.60;;;7.03;;
21890;SDS011;11110;52.386;16.940;2022-12-07T14:17:26;15.57;;;6.50;;
21890;SDS011;11110;52.386;16.940;2022-12-07T14:19:57;22.13;;;8.00;;
21890;SDS011;11110;52.386;16.940;2022-12-07T14:22:29;21.00;;;7.03;;
21890;SDS011;11110;52.386;16.940;2022-12-07T14:25:17;22.60;;;7.40;;
21890;SDS011;11110;52.386;16.940;2022-12-07T14:27:50;22.90;;;7.37;;
21890;SDS011;11110;52.386;16.940;2022-12-07T14:30:22;22.40;;;7.10;;
21890;SDS011;11110;52.386;16.940;2022-12-07T14:32:54;25.53;;;7.00;;
21890;SDS011;11110;52.386;16.940;2022-12-07T14:35:25;23.57;;;6.37;;
21890;SDS011;11110;52.386;16.940;2022-12-07T14:37:56;24.50;;;7.93;;
21890;SDS011;11110;52.386;16.940;2022-12-07T14:40:25;19.97;;;6.80;;
21890;SDS011;11110;52.386;16.940;2022-12-07T14:42:57;24.97;;;7.63;;
21890;SDS011;11110;52.386;16.940;2022-12-07T14:45:28;28.53;;;8.23;;
21890;SDS011;11110;52.386;16.940;2022-12-07T14:47:57;26.47;;;7.73;;
21890;SDS011;11110;52.386;16.940;2022-12-07T14:50:49;19.60;;;6.67;;
21890;SDS011;11110;52.386;16.940;2022-12-07T14:53:42;26.33;;;8.07;;
21890;SDS011;11110;52.386;16.940;2022-12-07T14:56:20;23.87;;;7.33;;
21890;SDS011;11110;52.386;16.940;2022-12-07T14:58:49;27.23;;;8.23;;
21890;SDS011;11110;52.386;16.940;2022-12-07T15:01:17;22.57;;;7.03;;
21890;SDS011;11110;52.386;16.940;2022-12-07T15:03:46;31.07;;;8.60;;
21890;SDS011;11110;52.386;16.940;2022-12-07T15:06:15;23.70;;;7.30;;
21890;SDS011;11110;52.386;16.940;2022-12-07T15:08:47;25.63;;;6.33;;
21890;SDS011;11110;52.386;16.940;2022-12-07T15:11:16;25.87;;;6.83;;
21890;SDS011;11110;52.386;16.940;2022-12-07T15:13:45;23.57;;;7.67;;
21890;SDS011;11110;52.386;16.940;2022-12-07T15:16:31;24.77;;;7.07;;
21890;SDS011;11110;52.386;16.940;2022-12-07T15:19:20;16.80;;;5.70;;
21890;SDS011;11110;52.386;16.940;2022-12-07T15:21:55;21.60;;;7.00;;
21890;SDS011;11110;52.386;16.940;2022-12-07T15:24:26;19.53;;;6.37;;